FW4249 Weather Reports


time (UTC)temp
C
wind
direction
speed
KPH
gust
KPH
rain 1hr
cm
rain 24hr
cm
rain mn
cm
humidity
%
barometer
mb
20190916221418 26 0 43.5 56.3 0.00 0.00 0.00 78 1009.2
20190916220415 26 0 38.6 48.3 0.00 0.00 0.00 77 1009.1
20190916215418 26 22 38.6 46.7 0.00 0.00 0.00 78 1008.9
20190916214417 26 22 40.2 51.5 0.00 0.00 0.00 78 1008.9
20190916213417 26 0 43.5 56.3 0.00 0.00 0.00 77 1008.9
20190916212417 26 0 35.4 46.7 0.00 0.00 0.00 77 1008.7
20190916211417 26 0 40.2 51.5 0.00 0.00 0.00 75 1008.8
20190916210417 26 0 43.5 56.3 0.00 0.00 0.00 75 1008.7
20190916205417 26 0 33.8 41.8 0.00 0.00 0.00 76 1008.6
20190916204417 26 0 43.5 53.1 0.00 0.00 0.00 76 1008.6
20190916203417 26 0 38.6 48.3 0.00 0.00 0.00 77 1008.7
20190916202417 26 0 38.6 48.3 0.00 0.00 0.00 76 1008.6
20190916201417 26 0 45.1 57.9 0.00 0.00 0.00 76 1008.5
20190916200417 26 22 30.6 46.7 0.00 0.00 0.00 77 1008.6
20190916195417 26 0 40.2 51.5 0.00 0.00 0.00 77 1008.5
20190916194417 26 22 40.2 53.1 0.00 0.00 0.00 77 1008.4
20190916193417 26 0 41.8 49.9 0.00 0.00 0.00 77 1008.5
20190916192417 26 0 41.8 54.7 0.00 0.00 0.00 76 1008.4
20190916191417 26 0 35.4 41.8 0.00 0.00 0.00 77 1008.3
20190916190417 26 0 35.4 49.9 0.00 0.00 0.00 76 1008.1
20190916185417 26 0 38.6 46.7 0.00 0.00 0.00 76 1008.3
20190916184417 26 0 41.8 56.3 0.00 0.00 0.00 76 1008.3
20190916183417 26 0 32.2 40.2 0.00 0.00 0.00 77 1008.3
20190916182417 26 0 32.2 43.5 0.00 0.00 0.00 77 1008.4
20190916181417 26 0 40.2 49.9 0.00 0.00 0.00 76 1008.5
20190916180417 26 0 35.4 49.9 0.00 0.00 0.00 76 1008.6
20190916175417 26 22 30.6 41.8 0.00 0.00 0.00 75 1008.8
20190916174417 26 0 32.2 45.1 0.00 0.00 0.00 75 1008.9
20190916173417 26 22 30.6 40.2 0.00 0.00 0.00 75 1008.9
20190916172417 26 22 33.8 41.8 0.00 0.00 0.00 75 1008.9
20190916171417 26 0 25.7 35.4 0.00 0.00 0.00 75 1009.0
20190916170417 26 22 35.4 45.1 0.00 0.00 0.00 73 1008.9
20190916165416 26 22 32.2 41.8 0.00 0.00 0.00 74 1009.0
20190916164416 26 0 33.8 43.5 0.00 0.00 0.00 76 1009.0
20190916163416 26 0 35.4 46.7 0.00 0.00 0.00 73 1009.0
20190916162417 27 0 25.7 35.4 0.00 0.00 0.00 73 1009.0
20190916161416 27 22 37.0 45.1 0.00 0.00 0.00 71 1009.1
20190916160416 27 22 32.2 41.8 0.00 0.00 0.00 73 1009.0
20190916155417 27 22 35.4 49.9 0.00 0.00 0.00 72 1009.0
20190916154417 27 22 33.8 45.1 0.00 0.00 0.00 72 1008.9
20190916153417 27 0 33.8 48.3 0.00 0.00 0.00 75 1009.1
20190916152417 27 22 35.4 46.7 0.00 0.00 0.00 75 1009.1
20190916151417 27 22 37.0 46.7 0.00 0.00 0.00 77 1009.2
20190916150417 27 0 38.6 49.9 0.00 0.00 0.00 77 1009.1
20190916145417 27 22 40.2 49.9 0.00 0.00 0.00 77 1009.1
20190916144417 27 22 32.2 37.0 0.00 0.00 0.00 78 1008.9
20190916143417 27 22 38.6 45.1 0.00 0.00 0.00 78 1009.1
20190916142417 27 22 32.2 41.8 0.00 0.00 0.00 79 1008.9
20190916141417 27 22 37.0 45.1 0.00 0.00 0.00 79 1009.0
20190916140417 27 0 27.4 40.2 0.00 0.00 0.00 79 1008.9
20190916135417 27 0 30.6 40.2 0.00 0.00 0.00 78 1009.0
20190916134417 27 22 32.2 51.5 0.00 0.00 0.00 78 1008.9
20190916133417 27 22 24.1 32.2 0.00 0.00 0.00 79 1009.0
20190916132417 27 0 32.2 40.2 0.00 0.00 0.00 77 1009.0
20190916131417 27 0 40.2 51.5 0.00 0.00 0.00 78 1009.0
20190916130417 27 0 32.2 46.7 0.00 0.00 0.00 79 1009.1
20190916125416 27 0 38.6 48.3 0.00 0.00 0.00 78 1009.0
20190916124417 27 0 35.4 46.7 0.00 0.00 0.00 77 1009.0
20190916123417 27 0 27.4 32.2 0.00 0.00 0.00 80 1008.9
20190916122417 27 22 29.0 37.0 0.00 0.00 0.00 79 1009.0
20190916121416 27 22 30.6 46.7 0.00 0.00 0.00 79 1008.9
20190916120416 27 0 33.8 43.5 0.00 0.00 0.00 78 1008.7
20190916115417 27 0 33.8 43.5 0.00 0.00 0.00 79 1008.7
20190916114416 27 0 35.4 49.9 0.00 0.00 0.00 79 1008.7
20190916113417 27 22 40.2 48.3 0.00 0.00 0.00 79 1008.7
20190916112416 27 0 32.2 40.2 0.00 0.00 0.00 80 1008.7
20190916111417 27 0 29.0 38.6 0.00 0.00 0.00 80 1008.6
20190916110417 27 0 38.6 46.7 0.00 0.00 0.00 80 1008.7
20190916105417 27 0 37.0 48.3 0.00 0.00 0.00 80 1008.5
20190916104416 27 22 29.0 37.0 0.00 0.00 0.00 81 1008.3
20190916103417 27 22 30.6 41.8 0.00 0.00 0.00 80 1008.2
20190916102416 27 0 25.7 32.2 0.00 0.00 0.00 81 1008.3
20190916101417 27 0 35.4 43.5 0.00 0.00 0.00 80 1008.3
20190916100416 27 0 32.2 43.5 0.00 0.00 0.00 79 1008.2
20190916095416 27 0 32.2 38.6 0.00 0.00 0.00 79 1008.3
20190916094417 27 0 32.2 38.6 0.00 0.00 0.00 78 1008.1
20190916093417 27 22 29.0 38.6 0.00 0.00 0.00 77 1008.2
20190916092416 27 0 24.1 35.4 0.00 0.00 0.00 77 1008.1
20190916091417 27 0 29.0 37.0 0.00 0.00 0.00 76 1008.0
20190916090416 27 0 37.0 45.1 0.00 0.00 0.00 76 1008.0
20190916085416 27 0 35.4 41.8 0.00 0.00 0.00 77 1008.0
20190916084416 27 22 35.4 40.2 0.00 0.00 0.00 76 1007.8
20190916083416 27 0 35.4 41.8 0.00 0.00 0.00 76 1007.8
20190916082416 27 0 33.8 46.7 0.00 0.00 0.00 75 1007.8
20190916081416 27 0 35.4 45.1 0.00 0.00 0.00 74 1007.9
20190916080416 27 0 33.8 40.2 0.00 0.00 0.00 74 1007.9
20190916075416 27 0 33.8 43.5 0.00 0.00 0.00 74 1008.0
20190916074416 28 0 29.0 38.6 0.00 0.00 0.00 73 1007.8
20190916073417 28 22 27.4 37.0 0.00 0.00 0.00 75 1007.7
20190916072416 28 22 38.6 49.9 0.00 0.00 0.00 75 1007.7
20190916071416 28 0 33.8 41.8 0.00 0.00 0.00 76 1007.6
20190916070416 28 22 35.4 46.7 0.00 0.00 0.00 75 1007.6
20190916065417 28 22 30.6 43.5 0.00 0.00 0.00 76 1007.6
20190916064417 28 0 33.8 43.5 0.00 0.00 0.00 76 1007.6
20190916063416 28 22 27.4 33.8 0.00 0.00 0.00 76 1007.6
20190916062416 28 0 35.4 51.5 0.00 0.00 0.00 76 1007.7
20190916061416 28 0 27.4 33.8 0.00 0.00 0.00 77 1007.7
20190916060416 28 22 32.2 41.8 0.00 0.00 0.00 77 1007.8
20190916055416 28 22 29.0 41.8 0.00 0.00 0.00 78 1007.9
20190916054417 28 0 32.2 45.1 0.00 0.00 0.00 78 1008.0
20190916053416 28 0 29.0 38.6 0.00 0.00 0.00 78 1008.2
20190916052416 28 0 27.4 35.4 0.00 0.00 0.00 79 1008.2
20190916051416 28 0 30.6 41.8 0.00 0.00 0.00 78 1008.3
20190916050416 28 0 27.4 33.8 0.00 0.00 0.00 77 1008.5
20190916045416 29 0 24.1 27.4 0.00 0.00 0.00 76 1008.6
20190916044416 29 0 22.5 30.6 0.00 0.00 0.00 75 1008.7
20190916043416 28 0 25.7 29.0 0.00 0.00 0.00 75 1008.8
20190916042416 28 0 27.4 33.8 0.00 0.00 0.00 74 1008.9
20190916041416 29 0 25.7 32.2 0.00 0.00 0.00 74 1009.2
20190916040416 29 22 22.5 27.4 0.00 0.00 0.00 74 1009.2
20190916035416 28 0 19.3 22.5 0.00 0.00 0.00 75 1009.3
20190916034416 28 0 22.5 32.2 0.00 0.00 0.00 75 1009.3
20190916033416 28 0 29.0 33.8 0.00 0.00 0.00 74 1009.3
20190916032416 28 0 25.7 32.2 0.00 0.00 0.00 74 1009.4
20190916031416 29 22 22.5 29.0 0.00 0.00 0.00 74 1009.5
20190916030416 29 0 20.9 27.4 0.00 0.00 0.00 73 1009.7
20190916025416 29 22 20.9 27.4 0.00 0.00 0.00 73 1009.6
20190916024416 28 22 22.5 29.0 0.00 0.00 0.00 73 1009.6
20190916023415 28 22 20.9 25.7 0.00 0.00 0.00 74 1009.7
20190916022415 28 45 22.5 29.0 0.00 0.00 0.00 75 1009.7
20190916021416 28 45 17.7 20.9 0.00 0.00 0.00 76 1009.5
20190916020416 28 45 24.1 25.7 0.00 0.00 0.00 75 1009.5
20190916015415 28 45 22.5 25.7 0.00 0.00 0.00 76 1009.5
20190916014415 28 45 20.9 25.7 0.00 0.00 0.00 77 1009.5
20190916013416 28 45 25.7 29.0 0.00 0.00 0.00 78 1009.5
20190916012416 28 45 25.7 27.4 0.00 0.00 0.00 77 1009.4
20190916011416 28 45 22.5 27.4 0.00 0.00 0.00 77 1009.5
20190916010415 28 45 20.9 24.1 0.00 0.00 0.00 77 1009.3
20190916005416 28 45 17.7 20.9 0.00 0.00 0.00 77 1009.2
20190916004416 27 45 19.3 20.9 0.00 0.00 0.00 78 1009.1
20190916003415 27 45 17.7 19.3 0.00 0.00 0.00 80 1009.1
20190916002416 27 45 17.7 19.3 0.00 0.00 0.00 81 1009.2
20190916001416 27 45 19.3 20.9 0.00 0.00 0.00 80 1009.1
20190916000415 27 45 20.9 24.1 0.00 0.00 0.00 80 1009.0
20190915235417 27 45 24.1 29.0 0.00 0.00 0.00 79 1009.0
20190915234417 27 45 20.9 29.0 0.00 0.00 0.00 80 1009.0
20190915233417 27 45 22.5 27.4 0.00 0.00 0.00 80 1008.9
20190915232418 27 45 27.4 30.6 0.00 0.00 0.00 80 1008.7
20190915231418 27 45 29.0 32.2 0.00 0.00 0.00 80 1008.6
20190915230418 27 45 33.8 38.6 0.00 0.00 0.00 80 1008.5
20190915225418 27 45 33.8 37.0 0.00 0.00 0.00 80 1008.5
20190915224418 26 45 33.8 35.4 0.00 0.00 0.00 80 1008.3
20190915223417 26 45 32.2 35.4 0.00 0.00 0.00 81 1008.1
20190915222418 26 45 35.4 38.6 0.00 0.00 0.00 81 1008.1